createdAt,value
2022-10-04T00:02:13.836Z,96005.66
2022-10-04T00:05:04.238Z,95995.28
2022-10-04T00:07:53.596Z,95999.66
2022-10-04T00:10:39.592Z,95996.78
2022-10-04T00:13:26.484Z,96000.47
2022-10-04T00:16:21.164Z,96013.50
2022-10-04T00:19:42.809Z,96005.59
2022-10-04T00:22:30.441Z,96007.50
2022-10-04T00:25:17.972Z,96001.69
2022-10-04T00:28:25.878Z,96003.84
2022-10-04T00:31:27.420Z,95996.88
2022-10-04T00:34:13.446Z,95998.53
2022-10-04T00:36:59.370Z,95992.28
2022-10-04T00:39:47.720Z,95998.13
2022-10-04T00:42:53.548Z,95987.03
2022-10-04T00:45:46.447Z,95998.41
2022-10-04T00:49:07.780Z,96008.69
2022-10-04T00:51:58.310Z,95995.06
2022-10-04T00:54:50.306Z,96000.84
2022-10-04T00:57:43.445Z,96008.69
2022-10-04T01:00:33.646Z,96012.84
2022-10-04T01:03:26.686Z,95998.41
2022-10-04T01:06:12.351Z,96001.97
2022-10-04T01:09:04.810Z,95996.31
2022-10-04T01:11:59.909Z,95996.47
2022-10-04T01:14:59.075Z,95996.09
2022-10-04T01:18:10.997Z,96003.69
2022-10-04T01:21:09.100Z,95995.06
2022-10-04T01:23:58.175Z,95998.84
2022-10-04T01:26:45.166Z,95993.31
2022-10-04T01:29:32.141Z,95990.78
2022-10-04T01:32:18.306Z,95992.28
2022-10-04T01:35:04.529Z,95993.94
2022-10-04T01:37:50.634Z,95992.91
2022-10-04T01:40:43.950Z,95996.06
2022-10-04T01:43:33.566Z,95981.53
2022-10-04T01:46:33.087Z,95989.03
2022-10-04T01:49:21.049Z,95975.34
2022-10-04T01:52:22.484Z,95987.53
2022-10-04T01:55:19.364Z,95980.16
2022-10-04T01:58:27.813Z,95967.66
2022-10-04T02:01:19.765Z,95988.81
2022-10-04T02:04:22.016Z,95974.13
2022-10-04T02:07:12.289Z,95979.63
2022-10-04T02:10:02.240Z,95976.16
2022-10-04T02:12:50.120Z,95970.16
2022-10-04T02:15:37.547Z,95960.00
2022-10-04T02:18:24.292Z,95930.81
2022-10-04T02:21:11.248Z,95970.91
2022-10-04T02:23:57.319Z,95979.78
2022-10-04T02:26:49.786Z,95984.34
2022-10-04T02:29:36.018Z,95956.91
2022-10-04T02:32:41.079Z,95990.09
2022-10-04T02:35:35.982Z,95983.63
2022-10-04T02:38:24.344Z,95978.91
2022-10-04T02:41:38.333Z,95978.38
2022-10-04T02:44:32.132Z,95985.41
2022-10-04T02:47:21.294Z,95973.75
2022-10-04T02:50:21.243Z,95971.63
2022-10-04T02:53:19.355Z,95972.28
2022-10-04T02:56:05.577Z,95966.66
2022-10-04T02:58:52.338Z,95978.41
2022-10-04T03:01:41.647Z,95979.88
2022-10-04T03:04:33.568Z,95978.59
2022-10-04T03:07:20.588Z,95982.50
2022-10-04T03:10:12.115Z,95977.13
2022-10-04T03:12:57.975Z,95968.81
2022-10-04T03:15:44.201Z,95967.69
2022-10-04T03:18:31.337Z,95953.56
2022-10-04T03:21:19.420Z,95975.09
2022-10-04T03:24:06.355Z,95969.94
2022-10-04T03:26:54.849Z,95968.38
2022-10-04T03:29:43.303Z,95974.09
2022-10-04T03:32:30.853Z,95973.06
2022-10-04T03:35:36.434Z,95980.00
2022-10-04T03:38:24.059Z,95984.19
2022-10-04T03:41:10.917Z,95972.31
2022-10-04T03:44:00.345Z,95977.25
2022-10-04T03:46:48.742Z,95977.25
2022-10-04T03:49:37.293Z,95975.75
2022-10-04T03:52:26.356Z,95966.81
2022-10-04T03:55:14.352Z,95986.00
2022-10-04T03:58:00.667Z,95980.47
2022-10-04T04:01:02.934Z,95987.41
2022-10-04T04:04:25.530Z,95981.78
2022-10-04T04:07:22.828Z,95973.06
2022-10-04T04:10:48.287Z,95986.38
2022-10-04T04:14:12.305Z,95988.88
2022-10-04T04:17:27.034Z,95983.88
2022-10-04T04:20:39.705Z,95976.06
2022-10-04T04:23:34.703Z,95994.16
2022-10-04T04:26:44.782Z,96003.84
2022-10-04T04:29:43.881Z,96002.81
2022-10-04T04:32:42.241Z,96003.53
2022-10-04T04:35:33.301Z,96015.09
2022-10-04T04:38:26.289Z,96004.72
2022-10-04T04:41:12.439Z,95984.84
2022-10-04T04:43:58.734Z,96002.72
2022-10-04T04:46:46.641Z,96004.16
2022-10-04T04:49:33.871Z,96016.25
2022-10-04T04:52:22.862Z,96009.16
2022-10-04T04:55:17.464Z,96026.53
2022-10-04T04:58:04.482Z,96017.06
2022-10-04T05:01:01.754Z,96035.56
2022-10-04T05:04:05.969Z,96027.63
2022-10-04T05:07:01.233Z,96035.81
2022-10-04T05:09:47.461Z,96042.50
2022-10-04T05:12:33.266Z,96039.81
2022-10-04T05:15:19.642Z,96044.97
2022-10-04T05:18:35.080Z,96050.72
2022-10-04T05:21:27.566Z,96034.84
2022-10-04T05:24:26.841Z,96046.38
2022-10-04T05:27:27.933Z,96065.53
2022-10-04T05:30:28.867Z,96060.66
2022-10-04T05:42:03.141Z,96039.06
2022-10-04T05:44:51.780Z,96069.88
2022-10-04T05:47:41.065Z,96060.41
2022-10-04T05:50:41.986Z,96062.81
2022-10-04T05:53:36.018Z,96052.44
2022-10-04T05:56:31.546Z,96072.09
2022-10-04T05:59:49.757Z,96069.00
2022-10-04T06:02:54.976Z,96067.38
2022-10-04T06:05:54.209Z,96054.72
2022-10-04T06:08:46.148Z,96060.94
2022-10-04T06:11:47.358Z,96080.25
2022-10-04T06:15:03.688Z,96094.41
2022-10-04T06:18:11.102Z,96087.66
2022-10-04T06:21:09.323Z,96088.88
2022-10-04T06:24:11.014Z,96092.94
2022-10-04T06:27:16.017Z,96101.38
2022-10-04T06:30:05.286Z,96094.78
2022-10-04T06:33:03.493Z,96106.38
2022-10-04T06:36:24.837Z,96097.84
2022-10-04T06:39:16.865Z,96125.25
2022-10-04T06:42:17.981Z,96103.69
2022-10-04T06:45:21.361Z,96108.75
2022-10-04T06:48:45.916Z,96118.81
2022-10-04T06:51:33.117Z,96114.56
2022-10-04T06:54:41.054Z,96121.59
2022-10-04T06:57:39.065Z,96122.75
2022-10-04T07:00:29.796Z,96106.91
2022-10-04T07:03:40.531Z,96109.03
2022-10-04T07:06:31.063Z,96132.84
2022-10-04T07:09:22.135Z,96129.63
2022-10-04T07:12:08.615Z,96130.66
2022-10-04T07:15:00.161Z,96140.28
2022-10-04T07:17:48.293Z,96131.50
2022-10-04T07:20:34.986Z,96135.91
2022-10-04T07:23:29.749Z,96136.72
2022-10-04T07:26:38.421Z,96106.75
2022-10-04T07:29:31.893Z,96122.25
2022-10-04T07:32:23.319Z,96114.06
2022-10-04T07:35:09.503Z,96111.00
2022-10-04T07:38:06.349Z,96108.38
2022-10-04T07:40:58.631Z,96103.41
2022-10-04T07:43:52.101Z,96087.13
2022-10-04T07:46:50.114Z,96097.28
2022-10-04T07:49:40.492Z,96093.78
2022-10-04T07:52:41.726Z,96102.28
2022-10-04T07:55:33.212Z,96097.75
2022-10-04T07:58:35.046Z,96079.09
2022-10-04T08:01:47.121Z,96092.97
2022-10-04T08:04:45.430Z,96081.22
2022-10-04T08:07:37.262Z,96098.94
2022-10-04T08:10:31.352Z,96106.19
2022-10-04T08:13:28.724Z,96102.50
2022-10-04T08:16:36.529Z,96093.78
2022-10-04T08:19:42.675Z,96106.25
2022-10-04T08:22:41.531Z,96117.75
2022-10-04T08:25:53.182Z,96103.22
2022-10-04T08:29:31.617Z,96104.69
2022-10-04T08:32:27.613Z,96124.66
2022-10-04T08:35:46.127Z,96120.94
2022-10-04T08:38:48.269Z,96125.69
2022-10-04T08:42:32.215Z,96113.63
2022-10-04T08:45:21.167Z,96124.03
2022-10-04T08:48:31.628Z,96127.97
2022-10-04T08:51:43.684Z,96126.53
2022-10-04T08:55:12.217Z,96129.22
2022-10-04T08:58:45.704Z,96131.69
2022-10-04T09:01:56.888Z,96126.94
2022-10-04T09:04:57.023Z,96131.91
2022-10-04T09:07:52.183Z,96117.19
2022-10-04T09:11:10.899Z,96129.22
2022-10-04T09:14:18.407Z,96137.94
2022-10-04T09:17:21.984Z,96139.81
2022-10-04T09:20:37.656Z,96150.81
2022-10-04T09:23:41.632Z,96136.88
2022-10-04T09:26:38.471Z,96134.59
2022-10-04T09:29:43.023Z,96135.03
2022-10-04T09:32:59.533Z,96138.78
2022-10-04T09:36:05.564Z,96122.13
2022-10-04T09:39:29.546Z,96137.94
2022-10-04T09:42:39.188Z,96131.88
2022-10-04T09:45:31.010Z,96124.00
2022-10-04T09:48:30.252Z,96119.22
2022-10-04T09:51:40.930Z,96127.69
2022-10-04T09:54:49.518Z,96120.00
2022-10-04T09:57:57.433Z,96131.47
2022-10-04T10:01:13.847Z,96119.19
2022-10-04T10:04:37.191Z,96129.16
2022-10-04T10:07:35.517Z,96135.53
2022-10-04T10:11:01.868Z,96141.81
2022-10-04T10:14:09.514Z,96138.84
2022-10-04T10:17:01.597Z,96126.69
2022-10-04T10:20:28.994Z,96130.34
2022-10-04T10:23:37.834Z,96135.34
2022-10-04T10:26:55.769Z,96129.69
2022-10-04T10:29:57.144Z,96121.81
2022-10-04T10:33:08.493Z,96140.31
2022-10-04T10:36:01.209Z,96135.50
2022-10-04T10:38:46.932Z,96140.13
2022-10-04T10:41:56.356Z,96130.13
2022-10-04T10:44:51.181Z,96129.00
2022-10-04T10:47:40.549Z,96137.75
2022-10-04T10:50:29.437Z,96126.53
2022-10-04T10:53:53.081Z,96129.81
2022-10-04T10:57:00.873Z,96137.09
2022-10-04T11:00:21.437Z,96117.44
2022-10-04T11:03:43.444Z,96116.59
2022-10-04T11:06:29.502Z,96116.56
2022-10-04T11:09:40.961Z,96121.16
2022-10-04T11:12:32.927Z,96124.59
2022-10-04T11:16:04.091Z,96125.00
2022-10-04T11:19:16.136Z,96103.66
2022-10-04T11:22:20.811Z,96110.88
2022-10-04T11:25:29.845Z,96114.19
2022-10-04T11:28:36.414Z,96105.19
2022-10-04T11:31:56.277Z,96116.84
2022-10-04T11:35:12.706Z,96112.44
2022-10-04T11:38:25.193Z,96107.63
2022-10-04T11:41:39.260Z,96107.19
2022-10-04T11:44:47.541Z,96102.00
2022-10-04T11:47:55.301Z,96108.38
2022-10-04T11:51:06.170Z,96100.28
2022-10-04T11:54:14.224Z,96092.38
2022-10-04T11:57:37.229Z,96093.66
2022-10-04T12:00:26.629Z,96092.72
2022-10-04T12:03:44.345Z,96094.59
2022-10-04T12:06:44.586Z,96093.69
2022-10-04T12:09:40.336Z,96091.88
2022-10-04T12:12:38.204Z,96089.19
2022-10-04T12:15:52.123Z,96079.16
2022-10-04T12:19:02.372Z,96073.91
2022-10-04T12:21:54.625Z,96089.41
2022-10-04T12:25:21.322Z,96089.84
2022-10-04T12:28:16.710Z,96076.84
2022-10-04T12:31:11.588Z,96091.59
2022-10-04T12:34:05.008Z,96098.19
2022-10-04T12:37:04.218Z,96096.97
2022-10-04T12:40:20.582Z,96102.09
2022-10-04T12:43:45.048Z,96099.94
2022-10-04T12:46:53.054Z,96083.84
2022-10-04T12:49:55.175Z,96089.91
2022-10-04T12:53:07.841Z,96080.56
2022-10-04T12:56:00.253Z,96101.56
2022-10-04T12:58:58.516Z,96115.13
2022-10-04T13:01:55.961Z,96100.66
2022-10-04T13:04:48.242Z,96100.38
2022-10-04T13:07:37.606Z,96095.72
2022-10-04T13:10:31.085Z,96089.88
2022-10-04T13:13:45.036Z,96090.16
2022-10-04T13:17:33.986Z,96096.09
2022-10-04T13:20:33.690Z,96100.13
2022-10-04T13:23:42.306Z,96104.16
2022-10-04T13:26:40.017Z,96100.69
2022-10-04T13:29:34.136Z,96106.13
2022-10-04T13:32:27.179Z,96109.06
2022-10-04T13:35:22.029Z,96102.28
2022-10-04T13:38:26.788Z,96117.91
2022-10-04T13:41:18.810Z,96115.41
2022-10-04T13:44:27.142Z,96108.28
2022-10-04T13:47:37.258Z,96116.50
2022-10-04T13:50:26.288Z,96125.03
2022-10-04T13:53:58.665Z,96118.59
2022-10-04T13:56:47.761Z,96119.44
2022-10-04T13:59:45.296Z,96124.91
2022-10-04T14:02:53.412Z,96123.94
2022-10-04T14:05:59.273Z,96125.69
2022-10-04T14:09:15.748Z,96128.53
2022-10-04T14:12:04.855Z,96137.41
2022-10-04T14:15:18.175Z,96148.34
2022-10-04T14:18:27.159Z,96154.91
2022-10-04T14:21:32.046Z,96149.81
2022-10-04T14:24:33.504Z,96141.94
2022-10-04T14:27:32.116Z,96143.59
2022-10-04T14:30:49.809Z,96138.50
2022-10-04T14:33:54.787Z,96140.88
2022-10-04T14:36:54.070Z,96133.13
2022-10-04T14:40:05.044Z,96118.97
2022-10-04T14:43:00.576Z,96139.88
2022-10-04T14:46:11.491Z,96155.91
2022-10-04T14:49:39.023Z,96151.19
2022-10-04T14:52:38.319Z,96128.59
2022-10-04T14:55:58.295Z,96145.19
2022-10-04T14:59:15.517Z,96149.38
2022-10-04T15:02:01.542Z,96153.00
2022-10-04T15:05:08.330Z,96154.72
2022-10-04T15:08:21.462Z,96146.09
2022-10-04T15:11:14.871Z,96166.31
2022-10-04T15:14:04.874Z,96165.53
2022-10-04T15:16:56.461Z,96173.44
2022-10-04T15:20:01.992Z,96168.72
2022-10-04T15:23:13.478Z,96165.47
2022-10-04T15:26:04.697Z,96169.75
2022-10-04T15:28:50.690Z,96168.34
2022-10-04T15:31:48.326Z,96173.72
2022-10-04T15:34:50.568Z,96179.53
2022-10-04T15:37:44.374Z,96179.53
2022-10-04T15:41:02.028Z,96179.22
2022-10-04T15:44:14.094Z,96191.59
2022-10-04T15:47:35.757Z,96195.09
2022-10-04T15:50:43.363Z,96192.59
2022-10-04T15:53:44.914Z,96195.34
2022-10-04T15:57:00.257Z,96208.00
2022-10-04T15:59:58.477Z,96217.03
2022-10-04T16:02:50.829Z,96226.31
2022-10-04T16:06:12.372Z,96226.44
2022-10-04T16:09:23.626Z,96245.22
2022-10-04T16:12:36.855Z,96232.03
2022-10-04T16:15:39.048Z,96245.75
2022-10-04T16:18:43.400Z,96222.94
2022-10-04T16:22:16.138Z,96237.97
2022-10-04T16:25:23.973Z,96235.47
2022-10-04T16:28:31.865Z,96227.63
2022-10-04T16:31:51.086Z,96242.59
2022-10-04T16:34:45.195Z,96251.75
2022-10-04T16:37:55.051Z,96253.44
2022-10-04T16:41:07.597Z,96257.41
2022-10-04T16:43:54.474Z,96263.22
2022-10-04T16:46:48.624Z,96263.25
2022-10-04T16:49:48.466Z,96262.41
2022-10-04T16:52:49.823Z,96267.59
2022-10-04T16:55:44.906Z,96268.38
2022-10-04T16:58:31.687Z,96262.22
2022-10-04T17:01:23.995Z,96263.41
2022-10-04T17:04:22.617Z,96267.97
2022-10-04T17:07:58.102Z,96267.53
2022-10-04T17:10:50.457Z,96279.38
2022-10-04T17:13:59.920Z,96268.97
2022-10-04T17:16:58.623Z,96271.88
2022-10-04T17:19:54.984Z,96292.84
2022-10-04T17:23:07.062Z,96297.81
2022-10-04T17:25:59.732Z,96307.34
2022-10-04T17:29:22.015Z,96315.84
2022-10-04T17:32:35.545Z,96299.63
2022-10-04T17:35:52.808Z,96320.78
2022-10-04T17:38:51.794Z,96316.44
2022-10-04T17:42:02.701Z,96328.00
2022-10-04T17:45:22.868Z,96324.06
2022-10-04T17:48:33.748Z,96326.72
2022-10-04T17:51:41.456Z,96324.63
2022-10-04T17:54:49.280Z,96332.84
2022-10-04T17:57:39.787Z,96344.69
2022-10-04T18:00:28.589Z,96303.84
2022-10-04T18:03:32.720Z,96332.72
2022-10-04T18:06:29.792Z,96354.72
2022-10-04T18:09:26.141Z,96359.44
2022-10-04T18:12:30.669Z,96372.47
2022-10-04T18:15:25.925Z,96359.75
2022-10-04T18:18:12.608Z,96382.38
2022-10-04T18:21:17.305Z,96373.00
2022-10-04T18:24:21.373Z,96380.81
2022-10-04T18:27:19.312Z,96377.00
2022-10-04T18:30:15.474Z,96380.94
2022-10-04T18:33:03.574Z,96361.19
2022-10-04T18:36:01.005Z,96386.53
2022-10-04T18:39:00.778Z,96374.34
2022-10-04T18:42:20.909Z,96381.59
2022-10-04T18:45:21.765Z,96393.22
2022-10-04T18:48:15.751Z,96393.59
2022-10-04T18:51:37.801Z,96393.31
2022-10-04T18:54:56.049Z,96401.25
2022-10-04T18:58:03.816Z,96389.34
2022-10-04T19:01:40.850Z,96402.56
2022-10-04T19:04:29.919Z,96407.78
2022-10-04T19:07:37.809Z,96398.78
2022-10-04T19:10:33.420Z,96399.34
2022-10-04T19:13:42.596Z,96408.91
2022-10-04T19:16:42.758Z,96398.25
2022-10-04T19:19:56.685Z,96418.84
2022-10-04T19:22:46.003Z,96418.41
2022-10-04T19:25:39.215Z,96415.25
2022-10-04T19:28:28.586Z,96414.22
2022-10-04T19:31:33.970Z,96410.69
2022-10-04T19:34:38.998Z,96420.94
2022-10-04T19:37:57.162Z,96420.44
2022-10-04T19:41:04.596Z,96423.53
2022-10-04T19:44:06.134Z,96429.91
2022-10-04T19:47:10.817Z,96430.56
2022-10-04T19:50:23.980Z,96423.16
2022-10-04T19:53:23.962Z,96439.00
2022-10-04T19:56:22.302Z,96439.56
2022-10-04T19:59:12.798Z,96442.94
2022-10-04T20:01:59.067Z,96438.94
2022-10-04T20:04:48.848Z,96437.91
2022-10-04T20:07:34.886Z,96442.47
2022-10-04T20:10:35.757Z,96445.72
2022-10-04T20:13:26.575Z,96455.09
2022-10-04T20:16:12.919Z,96446.53
2022-10-04T20:18:59.798Z,96448.22
2022-10-04T20:21:46.021Z,96465.47
2022-10-04T20:24:38.213Z,96455.75
2022-10-04T20:27:31.636Z,96469.00
2022-10-04T20:30:23.040Z,96452.41
2022-10-04T20:33:09.243Z,96462.72
2022-10-04T20:36:00.101Z,96476.63
2022-10-04T20:38:50.622Z,96425.69
2022-10-04T20:41:54.918Z,96477.25
2022-10-04T20:44:58.340Z,96449.53
2022-10-04T20:47:49.911Z,96473.09
2022-10-04T20:50:39.437Z,96473.94
2022-10-04T20:53:28.556Z,96464.00
2022-10-04T20:56:20.429Z,96475.78
2022-10-04T20:59:15.371Z,96473.47
2022-10-04T21:02:06.720Z,96472.44
2022-10-04T21:04:54.217Z,96448.59
2022-10-04T21:07:40.625Z,96484.22
2022-10-04T21:10:28.645Z,96487.38
2022-10-04T21:14:00.903Z,96497.41
2022-10-04T21:16:48.937Z,96484.44
2022-10-04T21:19:44.698Z,96489.97
2022-10-04T21:22:33.317Z,96487.19
2022-10-04T21:25:31.592Z,96489.22
2022-10-04T21:28:25.084Z,96497.47
2022-10-04T21:31:11.393Z,96484.38
2022-10-04T21:33:57.275Z,96485.63
2022-10-04T21:36:43.514Z,96492.38
2022-10-04T21:39:29.851Z,96495.25
2022-10-04T21:42:16.484Z,96490.22
2022-10-04T21:45:02.514Z,96495.81
2022-10-04T21:47:48.766Z,96504.91
2022-10-04T21:50:34.796Z,96500.06
2022-10-04T21:53:21.537Z,96490.56
2022-10-04T21:56:07.787Z,96502.28
2022-10-04T21:58:54.121Z,96493.47
2022-10-04T22:01:40.045Z,96503.38
2022-10-04T22:04:25.857Z,96497.53
2022-10-04T22:07:11.850Z,96502.91
2022-10-04T22:09:57.766Z,96489.53
2022-10-04T22:12:43.816Z,96489.91
2022-10-04T22:15:30.053Z,96503.34
2022-10-04T22:18:16.212Z,96504.38
2022-10-04T22:21:02.764Z,96502.75
2022-10-04T22:23:48.759Z,96512.97
2022-10-04T22:26:34.755Z,96505.59
2022-10-04T22:29:20.725Z,96519.72
2022-10-04T22:32:13.684Z,96529.97
2022-10-04T22:35:11.290Z,96513.09
2022-10-04T22:37:57.242Z,96519.03
2022-10-04T22:40:43.191Z,96511.91
2022-10-04T22:43:29.196Z,96520.41
2022-10-04T22:46:16.971Z,96518.09
2022-10-04T22:49:09.972Z,96523.97
2022-10-04T22:51:57.479Z,96523.78
2022-10-04T22:54:45.962Z,96525.25
2022-10-04T22:57:32.121Z,96514.88
2022-10-04T23:00:18.170Z,96514.41
2022-10-04T23:03:25.600Z,96523.97
2022-10-04T23:06:14.318Z,96526.13
2022-10-04T23:09:00.257Z,96529.16
2022-10-04T23:11:46.478Z,96519.44
2022-10-04T23:14:35.450Z,96522.66
2022-10-04T23:17:24.649Z,96523.78
2022-10-04T23:20:14.770Z,96529.94
2022-10-04T23:23:00.861Z,96525.88
2022-10-04T23:25:47.832Z,96529.09
2022-10-04T23:28:33.721Z,96531.78
2022-10-04T23:31:23.767Z,96528.06
2022-10-04T23:34:33.844Z,96537.19
2022-10-04T23:37:23.021Z,96536.13
2022-10-04T23:40:09.872Z,96530.41
2022-10-04T23:42:56.796Z,96539.13
2022-10-04T23:45:44.490Z,96525.03
2022-10-04T23:48:32.362Z,96518.34
2022-10-04T23:51:19.966Z,96533.56
2022-10-04T23:54:18.581Z,96523.53
2022-10-04T23:57:05.074Z,96523.34
2022-10-04T23:59:51.557Z,96532.56
